Time;durP1;ratioP1;P1;durP2;ratioP2;P2;SDS_P1;SDS_P2;PMS_P1;PMS_P2;Temp;Humidity;BMP_temperature;BMP_pressure;BME280_temperature;BME280_humidity;BME280_pressure;Samples;Min_cycle;Max_cycle;Signal;HPM_P1;HPM_P2
2022/05/22 00:01:05;;;;;;;1.80;0.80;;;;;;;-128.00;-1.00;-1.00;100004;1302;1004228;-28
2022/05/22 00:03:34;;;;;;;1.80;1.10;;;;;;;-128.00;-1.00;-1.00;100012;1302;1004016;-23
2022/05/22 00:06:03;;;;;;;0.90;0.70;;;;;;;-128.00;-1.00;-1.00;100012;1302;1003702;-24
2022/05/22 00:08:32;;;;;;;5.70;1.00;;;;;;;-128.00;-1.00;-1.00;99987;1302;1003764;-24
2022/05/22 00:11:01;;;;;;;1.50;1.00;;;;;;;-128.00;-1.00;-1.00;100024;1302;1004235;-30
2022/05/22 00:13:30;;;;;;;1.50;1.30;;;;;;;-128.00;-1.00;-1.00;100080;1302;1004656;-24
2022/05/22 00:18:31;;;;;;;1.20;0.80;;;;;;;-128.00;-1.00;-1.00;99990;1302;1003991;-28
2022/05/22 00:21:00;;;;;;;1.00;0.80;;;;;;;-128.00;-1.00;-1.00;100014;1302;1004148;-25
2022/05/22 00:23:31;;;;;;;2.00;1.30;;;;;;;-128.00;-1.00;-1.00;99956;1302;1003007;-24
2022/05/22 00:26:00;;;;;;;3.90;1.30;;;;;;;-128.00;-1.00;-1.00;99973;1301;1002902;-24
2022/05/22 00:28:29;;;;;;;1.80;1.20;;;;;;;-128.00;-1.00;-1.00;100066;1302;1003331;-28
2022/05/22 00:30:58;;;;;;;3.30;1.50;;;;;;;-128.00;-1.00;-1.00;100048;1302;1002986;-24
2022/05/22 00:33:28;;;;;;;1.70;1.40;;;;;;;-128.00;-1.00;-1.00;100018;1301;1003917;-25
2022/05/22 00:35:57;;;;;;;3.20;0.90;;;;;;;-128.00;-1.00;-1.00;99987;1301;1003633;-28
2022/05/22 00:38:26;;;;;;;2.10;0.80;;;;;;;-128.00;-1.00;-1.00;100055;1302;1003914;-25
2022/05/22 00:40:55;;;;;;;5.30;2.00;;;;;;;-128.00;-1.00;-1.00;100041;1299;1004304;-24
2022/05/22 00:43:24;;;;;;;1.20;1.00;;;;;;;-128.00;-1.00;-1.00;100073;1302;1003446;-28
2022/05/22 00:45:53;;;;;;;1.70;1.00;;;;;;;-128.00;-1.00;-1.00;100049;1301;1003231;-28
2022/05/22 00:48:23;;;;;;;2.50;1.00;;;;;;;-128.00;-1.00;-1.00;100077;1302;1003745;-30
2022/05/22 00:50:53;;;;;;;1.60;1.10;;;;;;;-128.00;-1.00;-1.00;100074;1302;1004432;-26
2022/05/22 00:53:22;;;;;;;2.60;1.30;;;;;;;-128.00;-1.00;-1.00;100018;1302;1004649;-26
2022/05/22 00:55:51;;;;;;;2.00;1.10;;;;;;;-128.00;-1.00;-1.00;100107;1302;1004364;-28
2022/05/22 00:58:22;;;;;;;2.40;1.60;;;;;;;-128.00;-1.00;-1.00;100094;1302;1003767;-24
2022/05/22 01:00:51;;;;;;;1.70;1.00;;;;;;;-128.00;-1.00;-1.00;100037;1302;1003555;-27
2022/05/22 01:05:57;;;;;;;1.10;0.70;;;;;;;-128.00;-1.00;-1.00;100021;1302;1004395;-25
2022/05/22 01:08:27;;;;;;;6.40;1.50;;;;;;;-128.00;-1.00;-1.00;100008;1302;1004304;-24
2022/05/22 01:10:59;;;;;;;11.10;2.00;;;;;;;-128.00;-1.00;-1.00;100033;1299;1003637;-28
2022/05/22 01:13:33;;;;;;;6.70;1.10;;;;;;;-128.00;-1.00;-1.00;100002;1302;1003424;-24
2022/05/22 01:16:03;;;;;;;7.60;1.80;;;;;;;-128.00;-1.00;-1.00;99987;1302;1003683;-24
2022/05/22 01:18:39;;;;;;;3.40;1.60;;;;;;;-128.00;-1.00;-1.00;100030;1302;1003338;-24
2022/05/22 01:21:11;;;;;;;1.70;1.20;;;;;;;-128.00;-1.00;-1.00;99997;1301;1003900;-28
2022/05/22 01:23:41;;;;;;;2.00;1.00;;;;;;;-128.00;-1.00;-1.00;100029;1302;1003767;-29
2022/05/22 01:26:10;;;;;;;3.30;1.70;;;;;;;-128.00;-1.00;-1.00;99971;1299;1003950;-24
2022/05/22 01:28:39;;;;;;;2.50;1.60;;;;;;;-128.00;-1.00;-1.00;100066;1302;1004087;-28
2022/05/22 01:31:08;;;;;;;6.10;1.50;;;;;;;-128.00;-1.00;-1.00;99980;1302;1003364;-24
2022/05/22 01:33:37;;;;;;;3.90;1.70;;;;;;;-128.00;-1.00;-1.00;100059;1302;1003871;-28
2022/05/22 01:36:07;;;;;;;3.60;1.80;;;;;;;-128.00;-1.00;-1.00;100017;1302;1004423;-24
2022/05/22 01:38:36;;;;;;;5.40;2.10;;;;;;;-128.00;-1.00;-1.00;100046;1302;1004187;-28
2022/05/22 01:41:05;;;;;;;2.30;1.50;;;;;;;-128.00;-1.00;-1.00;99998;1302;1003999;-26
2022/05/22 01:43:34;;;;;;;2.00;1.70;;;;;;;-128.00;-1.00;-1.00;100038;1302;1003688;-26
2022/05/22 01:46:03;;;;;;;3.60;1.70;;;;;;;-128.00;-1.00;-1.00;99995;1302;1004522;-26
2022/05/22 01:48:32;;;;;;;1.80;1.50;;;;;;;-128.00;-1.00;-1.00;100014;1302;1003755;-25
2022/05/22 01:51:02;;;;;;;3.80;1.70;;;;;;;-128.00;-1.00;-1.00;100044;1301;1003991;-28
2022/05/22 01:53:31;;;;;;;1.80;1.60;;;;;;;-128.00;-1.00;-1.00;99982;1302;1004517;-24
2022/05/22 01:56:00;;;;;;;5.70;2.10;;;;;;;-128.00;-1.00;-1.00;100049;1302;1004318;-27
2022/05/22 01:58:28;;;;;;;4.30;2.00;;;;;;;-128.00;-1.00;-1.00;100025;1302;1003738;-24
2022/05/22 02:00:58;;;;;;;12.10;1.90;;;;;;;-128.00;-1.00;-1.00;100070;1302;1003592;-24
2022/05/22 02:03:27;;;;;;;5.20;2.00;;;;;;;-128.00;-1.00;-1.00;99921;1302;1004568;-30
2022/05/22 02:05:56;;;;;;;6.10;2.10;;;;;;;-128.00;-1.00;-1.00;100020;1302;1003302;-30
2022/05/22 02:08:26;;;;;;;1.10;0.80;;;;;;;-128.00;-1.00;-1.00;100037;1301;1003757;-28
2022/05/22 02:10:57;;;;;;;2.20;1.60;;;;;;;-128.00;-1.00;-1.00;100022;1302;1004150;-24
2022/05/22 02:13:28;;;;;;;5.90;1.80;;;;;;;-128.00;-1.00;-1.00;100064;1302;1003994;-30
2022/05/22 02:15:57;;;;;;;3.00;2.40;;;;;;;-128.00;-1.00;-1.00;100025;1302;1003565;-28
2022/05/22 02:18:26;;;;;;;2.10;1.40;;;;;;;-128.00;-1.00;-1.00;99962;1300;1002700;-24
2022/05/22 02:20:56;;;;;;;3.60;2.00;;;;;;;-128.00;-1.00;-1.00;100048;1302;1003484;-24
2022/05/22 02:23:24;;;;;;;1.40;1.20;;;;;;;-128.00;-1.00;-1.00;100013;1302;1004244;-27
2022/05/22 02:25:55;;;;;;;1.70;0.90;;;;;;;-128.00;-1.00;-1.00;99991;1302;1003741;-28
2022/05/22 02:28:24;;;;;;;3.90;1.40;;;;;;;-128.00;-1.00;-1.00;100039;1301;1003766;-23
2022/05/22 02:30:55;;;;;;;4.60;2.00;;;;;;;-128.00;-1.00;-1.00;99997;1302;1004183;-24
2022/05/22 02:33:25;;;;;;;2.50;1.70;;;;;;;-128.00;-1.00;-1.00;100013;1302;1003666;-28
2022/05/22 02:35:54;;;;;;;3.10;1.50;;;;;;;-128.00;-1.00;-1.00;100031;1302;1004042;-28
2022/05/22 02:38:23;;;;;;;9.10;2.20;;;;;;;-128.00;-1.00;-1.00;100050;1302;1004236;-28
2022/05/22 02:40:52;;;;;;;3.00;1.80;;;;;;;-128.00;-1.00;-1.00;99975;1302;1004408;-28
2022/05/22 02:43:22;;;;;;;2.00;1.10;;;;;;;-128.00;-1.00;-1.00;100050;1302;1003808;-29
2022/05/22 02:45:51;;;;;;;8.00;2.40;;;;;;;-128.00;-1.00;-1.00;100073;1302;1004570;-24
2022/05/22 02:48:20;;;;;;;1.80;1.00;;;;;;;-128.00;-1.00;-1.00;100019;1302;1004114;-24
2022/05/22 02:50:49;;;;;;;3.10;1.80;;;;;;;-128.00;-1.00;-1.00;99982;1302;1003467;-24
2022/05/22 02:53:18;;;;;;;4.10;2.00;;;;;;;-128.00;-1.00;-1.00;100012;1302;1004215;-25
2022/05/22 02:55:47;;;;;;;2.60;1.30;;;;;;;-128.00;-1.00;-1.00;100084;1302;1003762;-24
2022/05/22 02:58:15;;;;;;;8.50;4.40;;;;;;;-128.00;-1.00;-1.00;100059;1302;1004270;-28
2022/05/22 03:00:44;;;;;;;8.90;2.10;;;;;;;-128.00;-1.00;-1.00;100012;1302;1003271;-26
2022/05/22 03:03:13;;;;;;;5.60;1.80;;;;;;;-128.00;-1.00;-1.00;100067;1302;1003569;-27
2022/05/22 03:08:16;;;;;;;5.90;2.50;;;;;;;-128.00;-1.00;-1.00;100052;1302;1002793;-24
2022/05/22 03:10:45;;;;;;;3.30;1.20;;;;;;;-128.00;-1.00;-1.00;100064;1302;1003170;-27
2022/05/22 03:13:14;;;;;;;3.20;1.40;;;;;;;-128.00;-1.00;-1.00;100035;1302;1004063;-30
2022/05/22 03:15:43;;;;;;;2.30;1.30;;;;;;;-128.00;-1.00;-1.00;100063;1302;1004013;-28
2022/05/22 03:18:12;;;;;;;1.70;1.10;;;;;;;-128.00;-1.00;-1.00;100047;1302;1003738;-28
2022/05/22 03:20:41;;;;;;;2.80;1.20;;;;;;;-128.00;-1.00;-1.00;100065;1302;1003686;-24
2022/05/22 03:23:10;;;;;;;1.50;1.20;;;;;;;-128.00;-1.00;-1.00;100036;1302;1003325;-23
2022/05/22 03:25:39;;;;;;;2.00;1.30;;;;;;;-128.00;-1.00;-1.00;100009;1302;1003721;-24
2022/05/22 03:28:08;;;;;;;3.50;1.50;;;;;;;-128.00;-1.00;-1.00;99913;1303;1003418;-28
2022/05/22 03:30:37;;;;;;;1.60;1.00;;;;;;;-128.00;-1.00;-1.00;100025;1302;1003535;-28
2022/05/22 03:33:06;;;;;;;3.50;1.30;;;;;;;-128.00;-1.00;-1.00;100051;1302;1004484;-28
2022/05/22 03:35:35;;;;;;;3.80;1.70;;;;;;;-128.00;-1.00;-1.00;100077;1302;1003394;-24
2022/05/22 03:38:05;;;;;;;3.60;1.40;;;;;;;-128.00;-1.00;-1.00;100043;1302;1003658;-30
2022/05/22 03:40:38;;;;;;;5.10;1.10;;;;;;;-128.00;-1.00;-1.00;99973;1302;1004562;-28
2022/05/22 03:43:07;;;;;;;1.60;0.80;;;;;;;-128.00;-1.00;-1.00;100086;1302;1003719;-28
2022/05/22 03:45:36;;;;;;;3.00;1.60;;;;;;;-128.00;-1.00;-1.00;99970;1302;1004362;-29
2022/05/22 03:48:05;;;;;;;2.70;1.80;;;;;;;-128.00;-1.00;-1.00;99963;1302;1003742;-25
2022/05/22 03:50:34;;;;;;;1.50;1.10;;;;;;;-128.00;-1.00;-1.00;100015;1302;1004371;-26
2022/05/22 03:53:04;;;;;;;16.80;0.90;;;;;;;-128.00;-1.00;-1.00;100020;1302;1004323;-28
2022/05/22 03:55:33;;;;;;;3.10;2.50;;;;;;;-128.00;-1.00;-1.00;100001;1302;1002988;-24
2022/05/22 03:58:02;;;;;;;1.90;1.20;;;;;;;-128.00;-1.00;-1.00;100063;1302;1003563;-26
2022/05/22 04:00:31;;;;;;;1.00;0.60;;;;;;;-128.00;-1.00;-1.00;100027;1302;1003121;-25
2022/05/22 04:03:00;;;;;;;6.00;1.50;;;;;;;-128.00;-1.00;-1.00;100020;1302;1003866;-28
2022/05/22 04:05:29;;;;;;;1.90;1.00;;;;;;;-128.00;-1.00;-1.00;100083;1302;1004175;-24
2022/05/22 04:07:58;;;;;;;10.00;1.60;;;;;;;-128.00;-1.00;-1.00;100085;1302;1003338;-28
2022/05/22 04:10:27;;;;;;;6.10;1.40;;;;;;;-128.00;-1.00;-1.00;99977;1302;1004480;-24
2022/05/22 04:12:56;;;;;;;4.40;2.50;;;;;;;-128.00;-1.00;-1.00;100043;1302;1003860;-24
2022/05/22 04:15:25;;;;;;;15.00;1.50;;;;;;;-128.00;-1.00;-1.00;99687;1302;1004823;-30
2022/05/22 04:17:54;;;;;;;1.40;1.30;;;;;;;-128.00;-1.00;-1.00;100059;1302;1004171;-24
2022/05/22 04:20:23;;;;;;;2.70;1.60;;;;;;;-128.00;-1.00;-1.00;100036;1302;1003341;-28
2022/05/22 04:25:25;;;;;;;2.80;1.10;;;;;;;-128.00;-1.00;-1.00;99963;1302;1003828;-28
2022/05/22 04:27:54;;;;;;;1.70;1.00;;;;;;;-128.00;-1.00;-1.00;100033;1302;1003394;-28
2022/05/22 04:30:24;;;;;;;3.30;1.70;;;;;;;-128.00;-1.00;-1.00;100046;1302;1003871;-28
2022/05/22 04:32:53;;;;;;;3.40;1.60;;;;;;;-128.00;-1.00;-1.00;100000;1302;1004669;-26
2022/05/22 04:35:22;;;;;;;2.30;1.20;;;;;;;-128.00;-1.00;-1.00;100007;1302;1003892;-30
2022/05/22 04:37:51;;;;;;;4.90;1.80;;;;;;;-128.00;-1.00;-1.00;100054;1302;1003650;-27
2022/05/22 04:40:20;;;;;;;2.40;1.60;;;;;;;-128.00;-1.00;-1.00;100066;1302;1003038;-24
2022/05/22 04:42:49;;;;;;;0.70;0.60;;;;;;;-128.00;-1.00;-1.00;99936;1302;1004063;-28
2022/05/22 04:45:18;;;;;;;7.90;1.30;;;;;;;-128.00;-1.00;-1.00;99961;1302;1004133;-30
2022/05/22 04:47:47;;;;;;;2.10;1.00;;;;;;;-128.00;-1.00;-1.00;99924;1302;1003424;-28
2022/05/22 04:50:16;;;;;;;2.70;0.90;;;;;;;-128.00;-1.00;-1.00;100023;1302;1004291;-28
2022/05/22 04:52:45;;;;;;;4.50;1.70;;;;;;;-128.00;-1.00;-1.00;100055;1302;1003074;-24
2022/05/22 04:55:14;;;;;;;2.90;0.90;;;;;;;-128.00;-1.00;-1.00;100068;1302;1004513;-28
2022/05/22 04:57:43;;;;;;;3.00;0.90;;;;;;;-128.00;-1.00;-1.00;100046;1302;1003379;-28
2022/05/22 05:00:13;;;;;;;5.30;1.00;;;;;;;-128.00;-1.00;-1.00;100036;1302;1003719;-24
2022/05/22 05:02:41;;;;;;;2.50;1.00;;;;;;;-128.00;-1.00;-1.00;100047;1302;1003777;-28
2022/05/22 05:05:11;;;;;;;3.90;0.70;;;;;;;-128.00;-1.00;-1.00;100062;1302;1004149;-28
2022/05/22 05:07:40;;;;;;;1.30;0.60;;;;;;;-128.00;-1.00;-1.00;100012;1302;1005179;-28
2022/05/22 05:10:10;;;;;;;5.80;0.70;;;;;;;-128.00;-1.00;-1.00;100034;1302;1004314;-24
2022/05/22 05:12:40;;;;;;;2.80;0.90;;;;;;;-128.00;-1.00;-1.00;99991;1302;1003748;-30
2022/05/22 05:15:10;;;;;;;2.80;0.80;;;;;;;-128.00;-1.00;-1.00;100069;1302;1003789;-30
2022/05/22 05:17:40;;;;;;;7.70;0.80;;;;;;;-128.00;-1.00;-1.00;100007;1302;1004197;-30
2022/05/22 05:20:10;;;;;;;3.50;0.80;;;;;;;-128.00;-1.00;-1.00;99993;1302;1003478;-27
2022/05/22 05:22:40;;;;;;;1.00;0.30;;;;;;;-128.00;-1.00;-1.00;100076;1302;1003531;-24
2022/05/22 05:25:10;;;;;;;6.60;0.90;;;;;;;-128.00;-1.00;-1.00;99937;1302;1003553;-28
2022/05/22 05:27:39;;;;;;;10.10;0.90;;;;;;;-128.00;-1.00;-1.00;100024;1302;1003416;-24
2022/05/22 05:30:09;;;;;;;5.60;1.00;;;;;;;-128.00;-1.00;-1.00;100046;1302;1004382;-27
2022/05/22 05:32:38;;;;;;;1.10;0.40;;;;;;;-128.00;-1.00;-1.00;100010;1302;1003920;-28
2022/05/22 05:35:09;;;;;;;2.80;0.70;;;;;;;-128.00;-1.00;-1.00;100037;1302;1003544;-28
2022/05/22 05:37:39;;;;;;;1.90;0.50;;;;;;;-128.00;-1.00;-1.00;100052;1302;1003482;-24
2022/05/22 05:40:08;;;;;;;1.90;0.70;;;;;;;-128.00;-1.00;-1.00;100042;1302;1003918;-25
2022/05/22 05:42:38;;;;;;;1.70;0.70;;;;;;;-128.00;-1.00;-1.00;100016;1302;1004614;-28
2022/05/22 05:45:08;;;;;;;2.70;0.90;;;;;;;-128.00;-1.00;-1.00;100044;1302;1004536;-28
2022/05/22 05:47:37;;;;;;;2.00;0.50;;;;;;;-128.00;-1.00;-1.00;100011;1302;1003712;-30
2022/05/22 05:50:07;;;;;;;6.00;0.50;;;;;;;-128.00;-1.00;-1.00;100042;1302;1004150;-24
2022/05/22 05:52:36;;;;;;;0.80;0.50;;;;;;;-128.00;-1.00;-1.00;100046;1302;1003209;-27
2022/05/22 05:55:05;;;;;;;1.10;0.30;;;;;;;-128.00;-1.00;-1.00;99997;1302;1003280;-28
2022/05/22 05:57:34;;;;;;;3.70;0.80;;;;;;;-128.00;-1.00;-1.00;100073;1302;1002981;-26
2022/05/22 06:00:05;;;;;;;2.30;0.50;;;;;;;-128.00;-1.00;-1.00;99960;1302;1003860;-26
2022/05/22 06:02:34;;;;;;;7.00;0.90;;;;;;;-128.00;-1.00;-1.00;100014;1302;1003391;-26
2022/05/22 06:05:04;;;;;;;0.20;0.20;;;;;;;-128.00;-1.00;-1.00;100047;1302;1003875;-30
2022/05/22 06:07:33;;;;;;;2.70;0.90;;;;;;;-128.00;-1.00;-1.00;100019;1302;1003386;-25
2022/05/22 06:10:03;;;;;;;2.50;0.40;;;;;;;-128.00;-1.00;-1.00;100043;1302;1003751;-28
2022/05/22 06:12:32;;;;;;;2.70;0.40;;;;;;;-128.00;-1.00;-1.00;100049;1302;1003967;-30
2022/05/22 06:15:02;;;;;;;1.30;0.50;;;;;;;-128.00;-1.00;-1.00;99943;1302;1003623;-26
2022/05/22 06:17:35;;;;;;;2.00;0.90;;;;;;;-128.00;-1.00;-1.00;99941;1302;1003663;-30
2022/05/22 06:20:07;;;;;;;2.50;0.50;;;;;;;-128.00;-1.00;-1.00;100037;1302;1003264;-24
2022/05/22 06:22:36;;;;;;;2.20;0.60;;;;;;;-128.00;-1.00;-1.00;100037;1302;1003694;-25
2022/05/22 06:25:07;;;;;;;0.90;0.30;;;;;;;-128.00;-1.00;-1.00;100078;1302;1004596;-24
2022/05/22 06:27:36;;;;;;;1.90;0.60;;;;;;;-128.00;-1.00;-1.00;99922;1302;1003322;-27
2022/05/22 06:30:06;;;;;;;0.50;0.50;;;;;;;-128.00;-1.00;-1.00;100029;1302;1004161;-28
2022/05/22 06:32:35;;;;;;;1.70;0.20;;;;;;;-128.00;-1.00;-1.00;100017;1302;1003957;-26
2022/05/22 06:35:05;;;;;;;1.00;0.40;;;;;;;-128.00;-1.00;-1.00;100013;1302;1003949;-28
2022/05/22 06:37:34;;;;;;;5.10;0.40;;;;;;;-128.00;-1.00;-1.00;100031;1302;1004164;-24
2022/05/22 06:40:05;;;;;;;1.10;0.20;;;;;;;-128.00;-1.00;-1.00;100059;1302;1003604;-27
2022/05/22 06:42:37;;;;;;;1.80;0.50;;;;;;;-128.00;-1.00;-1.00;99958;1302;1003062;-23
2022/05/22 06:45:11;;;;;;;2.10;0.60;;;;;;;-128.00;-1.00;-1.00;100023;1302;1003537;-30
2022/05/22 06:47:41;;;;;;;0.80;0.40;;;;;;;-128.00;-1.00;-1.00;100042;1302;1004468;-30
2022/05/22 06:50:11;;;;;;;1.10;0.50;;;;;;;-128.00;-1.00;-1.00;99972;1302;1003121;-27
2022/05/22 06:52:41;;;;;;;7.30;0.60;;;;;;;-128.00;-1.00;-1.00;99930;1302;1003888;-28
2022/05/22 06:55:11;;;;;;;2.40;0.60;;;;;;;-128.00;-1.00;-1.00;100029;1302;1003596;-27
2022/05/22 06:57:40;;;;;;;2.00;0.50;;;;;;;-128.00;-1.00;-1.00;100032;1302;1003739;-23
2022/05/22 07:00:12;;;;;;;1.70;0.30;;;;;;;-128.00;-1.00;-1.00;100028;1302;1003592;-24
2022/05/22 07:02:41;;;;;;;0.70;0.40;;;;;;;-128.00;-1.00;-1.00;100034;1302;1004354;-25
2022/05/22 07:05:11;;;;;;;6.90;0.60;;;;;;;-128.00;-1.00;-1.00;99966;1303;1003625;-24
2022/05/22 07:07:40;;;;;;;10.50;0.30;;;;;;;-128.00;-1.00;-1.00;100014;1302;1003200;-24
2022/05/22 07:10:09;;;;;;;2.10;0.50;;;;;;;-128.00;-1.00;-1.00;100005;1302;1004358;-28
2022/05/22 07:12:38;;;;;;;0.50;0.30;;;;;;;-128.00;-1.00;-1.00;100034;1302;1003654;-26
2022/05/22 07:15:08;;;;;;;5.00;0.70;;;;;;;-128.00;-1.00;-1.00;100054;1302;1003505;-27
2022/05/22 07:17:37;;;;;;;3.20;0.40;;;;;;;-128.00;-1.00;-1.00;100011;1302;1003578;-24
2022/05/22 07:20:07;;;;;;;1.50;0.40;;;;;;;-128.00;-1.00;-1.00;100055;1302;1003946;-28
2022/05/22 07:22:36;;;;;;;3.60;0.40;;;;;;;-128.00;-1.00;-1.00;99984;1302;1003422;-29
2022/05/22 07:25:06;;;;;;;0.40;0.30;;;;;;;-128.00;-1.00;-1.00;100051;1302;1004271;-29
2022/05/22 07:27:35;;;;;;;1.10;0.30;;;;;;;-128.00;-1.00;-1.00;100012;1302;1003524;-24
2022/05/22 07:30:04;;;;;;;0.40;0.10;;;;;;;-128.00;-1.00;-1.00;100038;1302;1004287;-24
2022/05/22 07:32:33;;;;;;;1.50;0.30;;;;;;;-128.00;-1.00;-1.00;100061;1302;1003469;-28
2022/05/22 07:35:02;;;;;;;3.90;0.60;;;;;;;-128.00;-1.00;-1.00;100055;1302;1003496;-24
2022/05/22 07:37:31;;;;;;;2.60;0.60;;;;;;;-128.00;-1.00;-1.00;100056;1302;1003602;-25
2022/05/22 07:40:01;;;;;;;2.80;0.40;;;;;;;-128.00;-1.00;-1.00;100038;1302;1003771;-28
2022/05/22 07:42:30;;;;;;;7.20;0.60;;;;;;;-128.00;-1.00;-1.00;100043;1302;1003822;-28
2022/05/22 07:44:59;;;;;;;1.80;0.30;;;;;;;-128.00;-1.00;-1.00;100045;1302;1003652;-24
2022/05/22 07:47:28;;;;;;;2.00;1.30;;;;;;;-128.00;-1.00;-1.00;99974;1302;1004741;-24
2022/05/22 07:52:29;;;;;;;1.10;0.40;;;;;;;-128.00;-1.00;-1.00;100047;1302;1002783;-26
2022/05/22 07:54:58;;;;;;;2.20;0.40;;;;;;;-128.00;-1.00;-1.00;99998;1302;1003953;-28
2022/05/22 07:57:28;;;;;;;0.70;0.30;;;;;;;-128.00;-1.00;-1.00;99987;1302;1003203;-22
2022/05/22 07:59:57;;;;;;;0.80;0.30;;;;;;;-128.00;-1.00;-1.00;99991;1302;1003759;-27
2022/05/22 08:02:26;;;;;;;0.90;0.30;;;;;;;-128.00;-1.00;-1.00;100001;1302;1004110;-24
2022/05/22 08:04:56;;;;;;;3.10;0.60;;;;;;;-128.00;-1.00;-1.00;100021;1302;1003757;-28
2022/05/22 08:07:24;;;;;;;1.60;0.50;;;;;;;-128.00;-1.00;-1.00;100006;1302;1004594;-24
2022/05/22 08:09:53;;;;;;;2.90;0.40;;;;;;;-128.00;-1.00;-1.00;100046;1302;1004091;-23
2022/05/22 08:12:22;;;;;;;2.00;0.40;;;;;;;-128.00;-1.00;-1.00;100014;1302;1003891;-26
2022/05/22 08:14:51;;;;;;;3.00;0.40;;;;;;;-128.00;-1.00;-1.00;100053;1302;1003144;-23
2022/05/22 08:17:21;;;;;;;2.60;0.40;;;;;;;-128.00;-1.00;-1.00;100044;1302;1003470;-29
2022/05/22 08:19:51;;;;;;;6.60;0.40;;;;;;;-128.00;-1.00;-1.00;100012;1302;1004711;-28
2022/05/22 08:22:20;;;;;;;0.60;0.10;;;;;;;-128.00;-1.00;-1.00;100080;1302;1004092;-29
2022/05/22 08:24:49;;;;;;;1.00;0.20;;;;;;;-128.00;-1.00;-1.00;100062;1302;1004421;-26
2022/05/22 08:27:18;;;;;;;0.10;0.10;;;;;;;-128.00;-1.00;-1.00;99997;1302;1003947;-28
2022/05/22 08:29:47;;;;;;;3.60;0.30;;;;;;;-128.00;-1.00;-1.00;100012;1302;1003711;-28
2022/05/22 08:32:16;;;;;;;0.30;0.10;;;;;;;-128.00;-1.00;-1.00;100018;1302;1004477;-24
2022/05/22 08:34:45;;;;;;;1.20;0.20;;;;;;;-128.00;-1.00;-1.00;100025;1302;1003202;-24
2022/05/22 08:37:14;;;;;;;3.10;0.40;;;;;;;-128.00;-1.00;-1.00;100130;1302;1003819;-28
2022/05/22 08:39:43;;;;;;;1.20;0.70;;;;;;;-128.00;-1.00;-1.00;100055;1302;1004525;-28
2022/05/22 08:42:19;;;;;;;1.90;0.20;;;;;;;-128.00;-1.00;-1.00;99988;1303;1003415;-29
2022/05/22 08:44:49;;;;;;;0.70;0.10;;;;;;;-128.00;-1.00;-1.00;99989;1302;1003682;-25
2022/05/22 08:47:21;;;;;;;1.90;0.10;;;;;;;-128.00;-1.00;-1.00;100008;1302;1003788;-24
2022/05/22 08:49:55;;;;;;;1.40;0.30;;;;;;;-128.00;-1.00;-1.00;100044;1302;1003657;-28
2022/05/22 08:52:30;;;;;;;1.60;0.30;;;;;;;-128.00;-1.00;-1.00;100024;1302;1003180;-27
2022/05/22 08:55:05;;;;;;;3.20;0.30;;;;;;;-128.00;-1.00;-1.00;99904;1303;1003299;-24
2022/05/22 09:00:12;;;;;;;0.80;0.30;;;;;;;-128.00;-1.00;-1.00;100024;1302;1004270;-26
2022/05/22 09:02:45;;;;;;;0.60;0.20;;;;;;;-128.00;-1.00;-1.00;99923;1302;1003799;-27
2022/05/22 09:05:17;;;;;;;0.50;0.10;;;;;;;-128.00;-1.00;-1.00;100048;1302;1003639;-24
2022/05/22 09:07:57;;;;;;;0.60;0.30;;;;;;;-128.00;-1.00;-1.00;100040;1302;1003582;-25
2022/05/22 09:10:31;;;;;;;1.60;0.30;;;;;;;-128.00;-1.00;-1.00;100017;1302;1003753;-26
2022/05/22 09:13:06;;;;;;;1.00;0.30;;;;;;;-128.00;-1.00;-1.00;99961;1301;1004290;-25
2022/05/22 09:15:39;;;;;;;1.30;0.30;;;;;;;-128.00;-1.00;-1.00;99948;1303;1003755;-25
2022/05/22 09:18:13;;;;;;;1.00;0.20;;;;;;;-128.00;-1.00;-1.00;100022;1302;1003847;-24
2022/05/22 09:20:53;;;;;;;0.40;0.20;;;;;;;-128.00;-1.00;-1.00;99979;1302;1003720;-27
2022/05/22 09:23:30;;;;;;;0.30;0.20;;;;;;;-128.00;-1.00;-1.00;99968;1302;1003139;-33
2022/05/22 09:26:02;;;;;;;0.40;0.10;;;;;;;-128.00;-1.00;-1.00;99864;1302;1004362;-28
2022/05/22 09:28:38;;;;;;;3.10;0.20;;;;;;;-128.00;-1.00;-1.00;99989;1302;1003669;-27
2022/05/22 09:31:13;;;;;;;0.90;0.10;;;;;;;-128.00;-1.00;-1.00;100053;1302;1002832;-27
2022/05/22 09:33:45;;;;;;;0.70;0.10;;;;;;;-128.00;-1.00;-1.00;99977;1302;1004006;-26
2022/05/22 09:36:18;;;;;;;0.90;0.20;;;;;;;-128.00;-1.00;-1.00;100017;1302;1004215;-28
2022/05/22 09:38:56;;;;;;;0.00;0.00;;;;;;;-128.00;-1.00;-1.00;100057;1302;1004109;-24
2022/05/22 09:41:31;;;;;;;1.00;0.10;;;;;;;-128.00;-1.00;-1.00;99971;1302;1003320;-26
2022/05/22 09:44:02;;;;;;;0.50;0.10;;;;;;;-128.00;-1.00;-1.00;100033;1302;1003077;-25
2022/05/22 09:46:40;;;;;;;0.60;0.00;;;;;;;-128.00;-1.00;-1.00;99998;1302;1003419;-28
2022/05/22 09:49:15;;;;;;;0.20;0.10;;;;;;;-128.00;-1.00;-1.00;99869;1302;1004023;-23
2022/05/22 09:51:50;;;;;;;0.30;0.00;;;;;;;-128.00;-1.00;-1.00;100022;1302;1003287;-24
2022/05/22 09:54:24;;;;;;;0.50;0.30;;;;;;;-128.00;-1.00;-1.00;100027;1302;1003730;-25
2022/05/22 09:56:57;;;;;;;0.20;0.10;;;;;;;-128.00;-1.00;-1.00;100043;1302;1004231;-24
2022/05/22 09:59:32;;;;;;;2.60;0.20;;;;;;;-128.00;-1.00;-1.00;100042;1302;1003730;-28
2022/05/22 10:02:04;;;;;;;0.70;0.20;;;;;;;-128.00;-1.00;-1.00;100055;1302;1003475;-24
2022/05/22 10:04:40;;;;;;;0.70;0.30;;;;;;;-128.00;-1.00;-1.00;100030;1302;1003319;-27
2022/05/22 10:07:16;;;;;;;2.60;0.70;;;;;;;-128.00;-1.00;-1.00;99971;1301;1003919;-30
2022/05/22 10:09:52;;;;;;;1.20;0.20;;;;;;;-128.00;-1.00;-1.00;99973;1302;1003901;-28
2022/05/22 10:12:22;;;;;;;1.10;0.10;;;;;;;-128.00;-1.00;-1.00;100029;1302;1002976;-27
2022/05/22 10:15:00;;;;;;;0.30;0.20;;;;;;;-128.00;-1.00;-1.00;100003;1302;1003384;-24
2022/05/22 10:17:40;;;;;;;1.40;0.40;;;;;;;-128.00;-1.00;-1.00;99939;1302;1003985;-24
2022/05/22 10:20:12;;;;;;;3.00;0.30;;;;;;;-128.00;-1.00;-1.00;100028;1302;1004152;-28
2022/05/22 10:22:48;;;;;;;0.30;0.20;;;;;;;-128.00;-1.00;-1.00;100006;1302;1004063;-27
2022/05/22 10:25:24;;;;;;;1.40;1.10;;;;;;;-128.00;-1.00;-1.00;100031;1302;1004056;-24
2022/05/22 10:28:00;;;;;;;1.50;0.40;;;;;;;-128.00;-1.00;-1.00;100067;1302;1003296;-28
2022/05/22 10:30:29;;;;;;;0.40;0.20;;;;;;;-128.00;-1.00;-1.00;100036;1302;1003142;-24
2022/05/22 10:33:03;;;;;;;1.10;0.10;;;;;;;-128.00;-1.00;-1.00;99988;1302;1003478;-30
2022/05/22 10:35:39;;;;;;;0.30;0.00;;;;;;;-128.00;-1.00;-1.00;100041;1302;1003710;-30
2022/05/22 10:38:08;;;;;;;1.40;0.20;;;;;;;-128.00;-1.00;-1.00;99960;1302;1004274;-30
2022/05/22 10:43:16;;;;;;;1.00;0.10;;;;;;;-128.00;-1.00;-1.00;99979;1302;1004253;-24
2022/05/22 10:45:45;;;;;;;0.40;0.10;;;;;;;-128.00;-1.00;-1.00;99939;1302;1004301;-25
2022/05/22 10:48:19;;;;;;;0.20;0.10;;;;;;;-128.00;-1.00;-1.00;99997;1302;1004114;-30
2022/05/22 10:50:52;;;;;;;0.80;0.40;;;;;;;-128.00;-1.00;-1.00;99858;1302;1003398;-24
2022/05/22 10:53:23;;;;;;;2.00;0.30;;;;;;;-128.00;-1.00;-1.00;100058;1302;1002714;-28
2022/05/22 10:56:00;;;;;;;0.90;0.10;;;;;;;-128.00;-1.00;-1.00;99967;1302;1003834;-28
2022/05/22 10:58:32;;;;;;;3.70;0.50;;;;;;;-128.00;-1.00;-1.00;99997;1302;1003960;-27
2022/05/22 11:01:04;;;;;;;1.00;0.30;;;;;;;-128.00;-1.00;-1.00;100049;1302;1003822;-27
2022/05/22 11:03:34;;;;;;;1.00;0.20;;;;;;;-128.00;-1.00;-1.00;100044;1302;1003413;-23
2022/05/22 11:06:16;;;;;;;0.90;0.40;;;;;;;-128.00;-1.00;-1.00;99990;1302;1004299;-24
2022/05/22 11:08:48;;;;;;;0.60;0.30;;;;;;;-128.00;-1.00;-1.00;100010;1302;1004283;-26
2022/05/22 11:11:23;;;;;;;1.00;0.30;;;;;;;-128.00;-1.00;-1.00;99957;1302;1003644;-28
2022/05/22 11:14:03;;;;;;;0.30;0.20;;;;;;;-128.00;-1.00;-1.00;99994;1302;1003018;-28
2022/05/22 11:16:32;;;;;;;2.10;1.00;;;;;;;-128.00;-1.00;-1.00;99963;1302;1003786;-24
2022/05/22 11:19:06;;;;;;;1.30;0.40;;;;;;;-128.00;-1.00;-1.00;100022;1302;1003733;-26
2022/05/22 11:21:53;;;;;;;1.20;0.60;;;;;;;-128.00;-1.00;-1.00;99947;1302;1003804;-29
2022/05/22 11:24:29;;;;;;;5.30;0.50;;;;;;;-128.00;-1.00;-1.00;99939;1302;1004136;-25
2022/05/22 11:27:01;;;;;;;0.20;0.20;;;;;;;-128.00;-1.00;-1.00;100000;1302;1003492;-28
2022/05/22 11:29:38;;;;;;;1.00;0.30;;;;;;;-128.00;-1.00;-1.00;100003;1302;1003626;-28
2022/05/22 11:32:31;;;;;;;2.60;0.50;;;;;;;-128.00;-1.00;-1.00;99934;1302;1004602;-28
2022/05/22 11:35:07;;;;;;;1.30;0.30;;;;;;;-128.00;-1.00;-1.00;99996;1302;1003151;-28
2022/05/22 11:37:43;;;;;;;0.40;0.30;;;;;;;-128.00;-1.00;-1.00;99996;1302;1003946;-25
2022/05/22 11:40:17;;;;;;;1.30;0.30;;;;;;;-128.00;-1.00;-1.00;100022;1302;1003329;-28
2022/05/22 11:42:46;;;;;;;0.50;0.30;;;;;;;-128.00;-1.00;-1.00;99969;1302;1004747;-28
2022/05/22 11:45:24;;;;;;;1.90;0.50;;;;;;;-128.00;-1.00;-1.00;99889;1302;1003960;-36
2022/05/22 11:48:11;;;;;;;0.60;0.30;;;;;;;-128.00;-1.00;-1.00;100027;1302;1004274;-26
2022/05/22 11:50:50;;;;;;;2.90;0.30;;;;;;;-128.00;-1.00;-1.00;100020;1302;1003592;-27
2022/05/22 11:53:24;;;;;;;1.90;0.60;;;;;;;-128.00;-1.00;-1.00;99993;1302;1003947;-25